Time;durP1;ratioP1;P1;durP2;ratioP2;P2;SDS_P1;SDS_P2;PMS_P1;PMS_P2;Temp;Humidity;BMP_temperature;BMP_pressure;BME280_temperature;BME280_humidity;BME280_pressure;Samples;Min_cycle;Max_cycle;Signal;HPM_P1;HPM_P2
2022/09/04 00:00:08;;;;;;;1.63;1.53;;;25.20;63.60;;;;;;5041514;28;20506;-73
2022/09/04 00:03:04;;;;;;;1.30;1.20;;;25.20;63.60;;;;;;5051169;28;20440;-72
2022/09/04 00:05:36;;;;;;;1.40;1.30;;;25.20;63.60;;;;;;5048707;28;20538;-72
2022/09/04 00:08:31;;;;;;;1.40;1.30;;;25.20;63.60;;;;;;5051423;28;20478;-72
2022/09/04 00:11:08;;;;;;;1.23;1.13;;;25.20;63.70;;;;;;5051470;28;20972;-72
2022/09/04 00:13:42;;;;;;;1.83;1.30;;;25.20;63.60;;;;;;5050539;28;20995;-73
2022/09/04 00:16:18;;;;;;;1.53;1.43;;;25.20;63.60;;;;;;5051566;28;20509;-75
2022/09/04 00:18:52;;;;;;;1.60;1.33;;;25.20;63.70;;;;;;5050575;28;20455;-72
2022/09/04 00:21:28;;;;;;;2.27;1.40;;;25.20;63.70;;;;;;5050521;28;20522;-72
2022/09/04 00:24:00;;;;;;;1.60;1.50;;;25.20;63.70;;;;;;5050024;28;20541;-72
2022/09/04 00:26:40;;;;;;;2.20;1.70;;;25.20;63.70;;;;;;5052337;28;20526;-73
2022/09/04 00:29:16;;;;;;;1.57;1.43;;;25.10;63.70;;;;;;5051295;28;20474;-74
2022/09/04 00:31:50;;;;;;;1.67;1.57;;;25.10;63.70;;;;;;5051769;28;20435;-73
2022/09/04 00:34:39;;;;;;;1.43;1.23;;;25.10;63.70;;;;;;5050605;28;20508;-76
2022/09/04 00:37:12;;;;;;;1.40;1.30;;;25.10;63.70;;;;;;5040758;28;20483;-74
2022/09/04 00:39:47;;;;;;;1.40;1.30;;;25.10;63.80;;;;;;5051385;28;20437;-73
2022/09/04 00:42:42;;;;;;;1.73;1.50;;;25.10;63.80;;;;;;5050739;28;20551;-79
2022/09/04 00:45:26;;;;;;;1.50;1.40;;;25.10;63.80;;;;;;5047667;28;20790;-72
2022/09/04 00:48:17;;;;;;;1.40;1.30;;;25.10;63.80;;;;;;5050470;28;20451;-73
2022/09/04 00:51:16;;;;;;;2.37;1.77;;;25.10;63.80;;;;;;5051178;28;20464;-73
2022/09/04 00:54:23;;;;;;;1.70;1.60;;;25.10;63.80;;;;;;5050307;28;20854;-73
2022/09/04 00:57:32;;;;;;;3.47;1.87;;;25.10;63.80;;;;;;5055307;28;20425;-72
2022/09/04 01:00:08;;;;;;;1.33;1.20;;;25.10;63.80;;;;;;5056049;28;20492;-72
2022/09/04 01:03:13;;;;;;;3.33;1.53;;;25.10;63.80;;;;;;5055209;28;20542;-73
2022/09/04 01:05:54;;;;;;;1.47;1.40;;;25.10;63.90;;;;;;5050274;28;20983;-73
2022/09/04 01:08:35;;;;;;;1.30;1.20;;;25.10;63.90;;;;;;5053809;28;20504;-73
2022/09/04 01:11:21;;;;;;;1.60;1.50;;;25.10;63.90;;;;;;5055491;28;20476;-73
2022/09/04 01:14:00;;;;;;;2.20;1.67;;;25.00;64.00;;;;;;5054504;28;20603;-73
2022/09/04 01:16:34;;;;;;;1.47;1.37;;;25.00;63.90;;;;;;5054643;28;20471;-73
2022/09/04 01:19:14;;;;;;;2.13;1.50;;;25.00;63.90;;;;;;5054346;28;20481;-73
2022/09/04 01:21:57;;;;;;;1.37;1.27;;;25.00;63.90;;;;;;5054471;28;20475;-75
2022/09/04 01:25:11;;;;;;;1.20;1.20;;;25.00;64.00;;;;;;5054747;28;20455;-74
2022/09/04 01:27:50;;;;;;;1.57;1.47;;;25.00;64.00;;;;;;5003396;28;20523;-73
2022/09/04 01:30:19;;;;;;;1.40;1.30;;;25.00;64.00;;;;;;5033297;28;20985;-73
2022/09/04 01:32:59;;;;;;;1.73;1.63;;;25.00;64.00;;;;;;5050995;28;20507;-73
2022/09/04 01:35:34;;;;;;;1.50;1.40;;;25.00;64.00;;;;;;5052222;28;20508;-74
2022/09/04 01:38:11;;;;;;;1.70;1.60;;;25.00;64.00;;;;;;5055083;28;20443;-74
2022/09/04 01:40:45;;;;;;;1.70;1.30;;;25.00;64.00;;;;;;5054455;28;20452;-73
2022/09/04 01:43:17;;;;;;;1.30;1.20;;;25.00;64.10;;;;;;5054240;28;20497;-73
2022/09/04 01:46:13;;;;;;;2.13;1.97;;;25.00;64.00;;;;;;5054160;28;20523;-72
2022/09/04 01:48:49;;;;;;;1.60;1.50;;;25.00;64.00;;;;;;5053838;28;20443;-73
2022/09/04 01:51:26;;;;;;;0.97;0.97;;;25.00;64.10;;;;;;5053313;28;20539;-73
2022/09/04 01:54:08;;;;;;;1.40;1.30;;;25.00;64.10;;;;;;5053504;28;20419;-75
2022/09/04 01:56:44;;;;;;;1.83;1.73;;;25.00;64.10;;;;;;5054778;28;20494;-73
2022/09/04 01:59:25;;;;;;;1.37;1.30;;;25.00;64.10;;;;;;5053205;28;20460;-74
2022/09/04 02:01:58;;;;;;;1.63;1.53;;;25.00;64.10;;;;;;5053442;28;20457;-73
2022/09/04 02:04:36;;;;;;;1.60;1.50;;;25.00;64.10;;;;;;5054317;28;20751;-73
2022/09/04 02:07:11;;;;;;;2.33;1.47;;;25.00;64.20;;;;;;5053719;28;20938;-73
2022/09/04 02:09:48;;;;;;;1.30;1.30;;;25.00;64.20;;;;;;5054377;28;20499;-73
2022/09/04 02:12:29;;;;;;;1.73;1.63;;;24.90;64.10;;;;;;5053752;28;20445;-73
2022/09/04 02:15:06;;;;;;;1.37;1.27;;;24.90;64.20;;;;;;5054243;28;20509;-73
2022/09/04 02:17:44;;;;;;;1.80;1.67;;;24.90;64.20;;;;;;5053593;28;20480;-73
2022/09/04 02:20:23;;;;;;;1.60;1.47;;;24.90;64.20;;;;;;5053556;28;21010;-74
2022/09/04 02:23:03;;;;;;;1.30;1.20;;;24.90;64.20;;;;;;5054389;28;20482;-74
2022/09/04 02:25:38;;;;;;;1.47;1.37;;;24.90;64.20;;;;;;5052988;28;20447;-73
2022/09/04 02:28:25;;;;;;;1.60;1.50;;;24.90;64.20;;;;;;5053921;28;20457;-72
2022/09/04 02:31:01;;;;;;;1.67;1.57;;;24.90;64.20;;;;;;5053839;28;20476;-76
2022/09/04 02:33:39;;;;;;;1.77;1.67;;;24.90;64.20;;;;;;5050251;28;20540;-76
2022/09/04 02:36:17;;;;;;;1.27;1.17;;;24.90;64.20;;;;;;5053987;28;20444;-73
2022/09/04 02:38:55;;;;;;;2.90;1.30;;;24.90;64.30;;;;;;5053636;28;20449;-73
2022/09/04 02:41:34;;;;;;;1.33;1.20;;;24.90;64.20;;;;;;5053508;28;20428;-73
2022/09/04 02:44:17;;;;;;;1.60;1.50;;;24.90;64.20;;;;;;5049981;28;20549;-73
2022/09/04 02:47:00;;;;;;;1.20;1.20;;;24.90;64.30;;;;;;5052617;28;20473;-75
2022/09/04 02:49:38;;;;;;;1.37;1.37;;;24.90;64.30;;;;;;5053299;28;20544;-73
2022/09/04 02:52:32;;;;;;;1.40;1.30;;;24.90;64.30;;;;;;5053807;28;20431;-74
2022/09/04 02:55:16;;;;;;;1.60;1.50;;;24.90;64.30;;;;;;5051791;28;20473;-73
2022/09/04 02:57:56;;;;;;;1.33;1.33;;;24.90;64.30;;;;;;5053257;28;20447;-73
2022/09/04 03:00:39;;;;;;;1.27;1.20;;;24.80;64.40;;;;;;5049974;28;20503;-73
2022/09/04 03:03:14;;;;;;;1.60;1.50;;;24.90;64.30;;;;;;5053056;28;21069;-73
2022/09/04 03:05:50;;;;;;;1.60;1.50;;;24.90;64.30;;;;;;5044936;28;20531;-72
2022/09/04 03:08:23;;;;;;;1.03;1.03;;;24.90;64.30;;;;;;5033660;28;20447;-73
2022/09/04 03:10:57;;;;;;;1.40;1.30;;;24.80;64.30;;;;;;5032998;28;20510;-72
2022/09/04 03:13:31;;;;;;;1.30;1.27;;;24.80;64.30;;;;;;5036205;28;20905;-73
2022/09/04 03:16:14;;;;;;;1.60;1.50;;;24.80;64.40;;;;;;5050011;28;20483;-74
2022/09/04 03:19:05;;;;;;;1.40;1.30;;;24.80;64.40;;;;;;5050804;28;20433;-73
2022/09/04 03:21:41;;;;;;;1.40;1.30;;;24.80;64.40;;;;;;5032590;28;20556;-72
2022/09/04 03:24:15;;;;;;;1.70;1.60;;;24.80;64.40;;;;;;5035207;28;20944;-73
2022/09/04 03:26:49;;;;;;;1.53;1.43;;;24.80;64.40;;;;;;5052800;28;20536;-74
2022/09/04 03:29:28;;;;;;;1.73;1.67;;;24.80;64.40;;;;;;5052834;28;21240;-72
2022/09/04 03:32:05;;;;;;;1.40;1.33;;;24.80;64.40;;;;;;5052227;28;20438;-73
2022/09/04 03:34:52;;;;;;;1.50;1.40;;;24.80;64.40;;;;;;5052124;28;20521;-73
2022/09/04 03:37:40;;;;;;;1.80;1.53;;;24.80;64.40;;;;;;5052928;28;20947;-72
2022/09/04 03:40:27;;;;;;;1.50;1.40;;;24.80;64.50;;;;;;5051888;28;20485;-73
2022/09/04 03:43:23;;;;;;;1.73;1.63;;;24.80;64.40;;;;;;5051940;28;20438;-72
2022/09/04 03:46:02;;;;;;;1.00;1.00;;;24.80;64.50;;;;;;5051929;28;20496;-73
2022/09/04 03:48:44;;;;;;;1.70;1.60;;;24.80;64.50;;;;;;5051242;28;20509;-74
2022/09/04 03:51:23;;;;;;;1.40;1.30;;;24.80;64.50;;;;;;5052006;28;20577;-72
2022/09/04 03:54:00;;;;;;;1.73;1.63;;;24.80;64.50;;;;;;5052234;28;21025;-73
2022/09/04 03:56:49;;;;;;;1.60;1.50;;;24.70;64.50;;;;;;5046935;28;20474;-72
2022/09/04 03:59:28;;;;;;;1.57;1.47;;;24.80;64.50;;;;;;5051897;28;20436;-74
2022/09/04 04:02:05;;;;;;;1.90;1.80;;;24.70;64.50;;;;;;5051658;28;20499;-78
2022/09/04 04:04:56;;;;;;;1.50;1.40;;;24.80;64.40;;;;;;5051251;28;20529;-73
2022/09/04 04:07:38;;;;;;;1.50;1.40;;;24.80;64.50;;;;;;5050889;28;20485;-72
2022/09/04 04:10:32;;;;;;;1.63;1.53;;;24.70;64.50;;;;;;5051693;28;20485;-74
2022/09/04 04:13:32;;;;;;;1.40;1.30;;;24.70;64.50;;;;;;5052089;28;20918;-73
2022/09/04 04:16:18;;;;;;;1.83;1.73;;;24.70;64.50;;;;;;5051664;28;20499;-72
2022/09/04 04:19:09;;;;;;;1.70;1.60;;;24.70;64.60;;;;;;5051119;28;20441;-72
2022/09/04 04:21:54;;;;;;;1.60;1.50;;;24.70;64.50;;;;;;5051784;28;20438;-72
2022/09/04 04:24:37;;;;;;;1.27;1.10;;;24.70;64.60;;;;;;5050470;28;20515;-72
2022/09/04 04:27:34;;;;;;;1.43;1.30;;;24.70;64.60;;;;;;5044699;28;20483;-72
2022/09/04 04:30:08;;;;;;;1.50;1.40;;;24.70;64.70;;;;;;5049769;28;20973;-72
2022/09/04 04:32:59;;;;;;;1.40;1.30;;;24.70;64.60;;;;;;5050339;28;20916;-75
2022/09/04 04:35:38;;;;;;;2.30;2.00;;;24.70;64.60;;;;;;5049495;28;20983;-73
2022/09/04 04:38:23;;;;;;;2.30;1.57;;;24.70;64.70;;;;;;5049811;28;20492;-73
2022/09/04 04:41:21;;;;;;;1.70;1.60;;;24.70;64.70;;;;;;5051143;28;20447;-72
2022/09/04 04:43:57;;;;;;;1.53;1.43;;;24.70;64.70;;;;;;5046631;28;20485;-72
2022/09/04 04:46:40;;;;;;;1.50;1.40;;;24.70;64.70;;;;;;5050522;28;20541;-72
2022/09/04 04:49:40;;;;;;;1.90;1.80;;;24.70;64.80;;;;;;5048174;28;20445;-73
2022/09/04 04:52:23;;;;;;;1.43;1.43;;;24.70;64.70;;;;;;5043077;28;20569;-74
2022/09/04 04:55:05;;;;;;;1.60;1.50;;;24.60;64.70;;;;;;5048974;28;20495;-74
2022/09/04 04:57:48;;;;;;;1.80;1.70;;;24.60;64.80;;;;;;5044472;28;20488;-72
2022/09/04 05:00:20;;;;;;;1.47;1.37;;;24.60;64.70;;;;;;5037432;28;20978;-72
2022/09/04 05:03:04;;;;;;;3.70;1.77;;;24.60;64.70;;;;;;5046049;28;20456;-78
2022/09/04 05:05:52;;;;;;;1.70;1.60;;;24.70;64.70;;;;;;5040473;28;20939;-72
2022/09/04 05:08:31;;;;;;;1.83;1.73;;;24.60;64.70;;;;;;5038572;28;20446;-73
2022/09/04 05:11:09;;;;;;;1.60;1.50;;;24.60;64.70;;;;;;5049004;28;20564;-73
2022/09/04 05:13:46;;;;;;;1.90;1.80;;;24.60;64.70;;;;;;5050549;28;20917;-73
2022/09/04 05:16:25;;;;;;;2.97;1.30;;;24.70;64.70;;;;;;5046174;28;21022;-73
2022/09/04 05:18:59;;;;;;;2.00;1.60;;;24.60;64.70;;;;;;5039725;28;20483;-72
2022/09/04 05:21:36;;;;;;;1.97;1.77;;;24.70;64.70;;;;;;5051492;28;20522;-73
2022/09/04 05:24:12;;;;;;;3.83;1.80;;;24.60;64.70;;;;;;5050535;28;20525;-74
2022/09/04 05:26:48;;;;;;;1.93;1.83;;;24.60;64.70;;;;;;5051005;28;20491;-72
2022/09/04 05:29:24;;;;;;;1.63;1.53;;;24.70;64.60;;;;;;5051171;28;20546;-74
2022/09/04 05:32:07;;;;;;;1.70;1.60;;;24.70;64.60;;;;;;5049382;28;20566;-73
2022/09/04 05:34:52;;;;;;;1.50;1.40;;;24.70;64.60;;;;;;5050666;28;20499;-72
2022/09/04 05:37:27;;;;;;;1.50;1.40;;;24.70;64.60;;;;;;5050903;28;20963;-72
2022/09/04 05:40:04;;;;;;;1.50;1.40;;;24.70;64.60;;;;;;5050960;28;20496;-72
2022/09/04 05:42:53;;;;;;;1.80;1.70;;;24.70;64.60;;;;;;5053660;28;20527;-72
2022/09/04 05:45:27;;;;;;;1.73;1.63;;;24.70;64.60;;;;;;5053365;28;21209;-73
2022/09/04 05:48:04;;;;;;;1.90;1.80;;;24.70;64.60;;;;;;5054844;28;20536;-73
2022/09/04 05:51:02;;;;;;;1.50;1.40;;;24.70;64.60;;;;;;5053840;28;20473;-73
2022/09/04 05:54:01;;;;;;;1.50;1.40;;;24.70;64.60;;;;;;5053691;28;20534;-74
2022/09/04 05:56:45;;;;;;;1.90;1.80;;;24.70;64.60;;;;;;5040259;28;20472;-73
2022/09/04 05:59:38;;;;;;;1.80;1.70;;;24.70;64.60;;;;;;5042553;28;20495;-74
2022/09/04 06:02:58;;;;;;;1.43;1.43;;;24.70;64.60;;;;;;5053192;28;20771;-75
2022/09/04 06:05:39;;;;;;;2.50;1.90;;;24.70;64.60;;;;;;5053926;28;20426;-72
2022/09/04 06:08:22;;;;;;;1.63;1.53;;;24.70;64.60;;;;;;5053708;28;20870;-73
2022/09/04 06:11:07;;;;;;;2.37;1.83;;;24.70;64.60;;;;;;5053733;28;20454;-73
2022/09/04 06:13:54;;;;;;;1.80;1.70;;;24.70;64.60;;;;;;5048689;28;20460;-73
2022/09/04 06:16:43;;;;;;;2.70;1.93;;;24.70;64.60;;;;;;5049957;28;21017;-73
2022/09/04 06:19:42;;;;;;;1.60;1.50;;;24.70;64.60;;;;;;5050639;28;20854;-73
2022/09/04 06:22:36;;;;;;;1.70;1.60;;;24.70;64.50;;;;;;5050099;28;20467;-73
2022/09/04 06:25:19;;;;;;;1.87;1.77;;;24.70;64.50;;;;;;5052906;28;20451;-73
2022/09/04 06:28:15;;;;;;;2.27;2.07;;;24.70;64.40;;;;;;5053929;28;20458;-73
2022/09/04 06:30:53;;;;;;;1.70;1.60;;;24.70;64.40;;;;;;5052752;28;20461;-75
2022/09/04 06:33:50;;;;;;;1.40;1.40;;;24.70;64.30;;;;;;5052908;28;20573;-74
2022/09/04 06:36:39;;;;;;;1.53;1.47;;;24.70;64.30;;;;;;5031257;28;20501;-72
2022/09/04 06:39:16;;;;;;;1.70;1.60;;;24.80;64.30;;;;;;5035667;28;20464;-73
2022/09/04 06:41:58;;;;;;;2.00;1.90;;;24.80;64.20;;;;;;5052899;28;20444;-73
2022/09/04 06:44:40;;;;;;;2.20;1.93;;;24.80;64.20;;;;;;5045712;28;20452;-73
2022/09/04 06:47:19;;;;;;;1.67;1.57;;;24.80;64.20;;;;;;5032586;28;20460;-72
2022/09/04 06:50:04;;;;;;;1.90;1.80;;;24.80;64.10;;;;;;5050630;28;21957;-74
2022/09/04 06:52:40;;;;;;;1.90;1.70;;;24.80;64.10;;;;;;5050925;28;20559;-72
2022/09/04 06:55:17;;;;;;;1.93;1.80;;;24.80;64.10;;;;;;5051800;28;20469;-73
2022/09/04 06:58:05;;;;;;;1.97;1.87;;;24.80;64.10;;;;;;5050608;28;20543;-72
2022/09/04 07:00:40;;;;;;;1.40;1.30;;;24.80;64.10;;;;;;5049449;28;20528;-72
2022/09/04 07:03:43;;;;;;;1.70;1.60;;;24.90;64.00;;;;;;5048753;28;20552;-72
2022/09/04 07:06:18;;;;;;;2.33;2.20;;;24.90;64.00;;;;;;5049072;28;20459;-72
2022/09/04 07:08:58;;;;;;;1.80;1.70;;;24.90;63.90;;;;;;5050690;28;20486;-73
2022/09/04 07:11:44;;;;;;;1.60;1.50;;;24.90;63.90;;;;;;5047274;28;20563;-72
2022/09/04 07:14:31;;;;;;;1.63;1.53;;;24.90;63.90;;;;;;5050292;28;20551;-72
2022/09/04 07:17:07;;;;;;;2.30;2.20;;;24.90;63.90;;;;;;5048840;28;20481;-72
2022/09/04 07:20:01;;;;;;;2.10;2.00;;;24.90;63.90;;;;;;5049492;28;20503;-72
2022/09/04 07:23:09;;;;;;;2.17;1.97;;;24.90;64.00;;;;;;5051543;28;20455;-72
2022/09/04 07:25:44;;;;;;;1.70;1.60;;;24.90;63.90;;;;;;5050327;28;20503;-72
2022/09/04 07:28:29;;;;;;;2.00;1.90;;;24.90;63.90;;;;;;5050890;28;20487;-72
2022/09/04 07:31:02;;;;;;;2.40;2.30;;;24.90;63.90;;;;;;5049027;28;21073;-72
2022/09/04 07:33:48;;;;;;;2.80;2.60;;;24.90;64.00;;;;;;5044445;28;20479;-71
2022/09/04 07:36:20;;;;;;;1.97;1.87;;;24.90;64.20;;;;;;5050541;28;20536;-72
2022/09/04 07:39:00;;;;;;;2.00;1.90;;;24.90;64.40;;;;;;5050641;28;20445;-70
2022/09/04 07:41:38;;;;;;;5.13;2.67;;;24.90;64.60;;;;;;5048716;28;20468;-73
2022/09/04 07:44:14;;;;;;;6.40;2.10;;;24.90;64.50;;;;;;5046631;28;20454;-73
2022/09/04 07:46:50;;;;;;;2.27;2.10;;;24.90;64.40;;;;;;5051587;28;20473;-72
2022/09/04 07:49:27;;;;;;;2.60;2.30;;;25.00;64.40;;;;;;5059374;28;20924;-72
2022/09/04 07:52:00;;;;;;;2.80;2.60;;;25.00;64.40;;;;;;5049271;28;20859;-73
2022/09/04 07:54:47;;;;;;;2.20;2.10;;;25.00;64.70;;;;;;5052353;28;20453;-73
2022/09/04 07:57:31;;;;;;;2.47;2.27;;;25.00;64.90;;;;;;5044005;28;20516;-72
2022/09/04 08:00:07;;;;;;;2.50;2.30;;;25.00;64.60;;;;;;5042949;28;20519;-74
2022/09/04 08:03:26;;;;;;;2.33;2.20;;;25.00;64.50;;;;;;5047523;28;20487;-73
2022/09/04 08:06:01;;;;;;;2.57;2.43;;;25.00;64.50;;;;;;5029541;28;20472;-73
2022/09/04 08:09:11;;;;;;;2.10;2.00;;;25.00;64.60;;;;;;5046647;28;20552;-72
2022/09/04 08:12:13;;;;;;;3.07;2.50;;;25.00;64.30;;;;;;5050708;28;20793;-69
2022/09/04 08:14:53;;;;;;;3.30;2.27;;;25.00;64.20;;;;;;5047879;28;20456;-74
2022/09/04 08:17:47;;;;;;;3.77;2.40;;;25.00;64.40;;;;;;5041296;28;20868;-71
2022/09/04 08:20:30;;;;;;;2.33;2.17;;;25.00;64.40;;;;;;5042226;28;20858;-73
2022/09/04 08:23:10;;;;;;;2.50;2.30;;;25.00;64.30;;;;;;5050077;28;20515;-71
2022/09/04 08:25:52;;;;;;;2.73;2.50;;;25.10;64.20;;;;;;5051199;28;20452;-71
2022/09/04 08:28:35;;;;;;;2.73;2.40;;;25.10;64.20;;;;;;5052730;28;20504;-71
2022/09/04 08:31:19;;;;;;;8.97;5.43;;;25.10;64.40;;;;;;5047658;28;20549;-72
2022/09/04 08:34:11;;;;;;;6.33;3.40;;;25.10;66.00;;;;;;5046511;28;20866;-72
2022/09/04 08:36:51;;;;;;;3.17;2.80;;;25.10;65.80;;;;;;5046407;28;20490;-72
2022/09/04 08:39:30;;;;;;;3.47;2.63;;;25.10;65.30;;;;;;5045641;28;20491;-71
2022/09/04 08:42:35;;;;;;;4.63;2.73;;;25.10;65.00;;;;;;5044497;28;20487;-70
2022/09/04 08:45:34;;;;;;;4.20;3.53;;;25.10;64.60;;;;;;5043890;28;20466;-69
2022/09/04 08:49:01;;;;;;;5.37;3.57;;;25.10;65.40;;;;;;5051448;28;20521;-70
2022/09/04 08:52:14;;;;;;;4.47;3.73;;;25.10;65.20;;;;;;4969756;28;20996;-71
2022/09/04 08:55:19;;;;;;;3.00;2.70;;;25.10;65.10;;;;;;4952335;28;20472;-70
2022/09/04 08:58:41;;;;;;;4.60;3.10;;;25.10;65.20;;;;;;5022922;28;20489;-70
2022/09/04 09:01:51;;;;;;;3.23;2.97;;;25.10;64.80;;;;;;5049202;28;20454;-70
2022/09/04 09:05:01;;;;;;;4.40;2.90;;;25.20;64.80;;;;;;5049205;28;20510;-70
2022/09/04 09:08:18;;;;;;;3.20;2.90;;;25.20;64.90;;;;;;5019374;28;20477;-70
2022/09/04 09:11:23;;;;;;;3.10;2.77;;;25.20;64.80;;;;;;5041303;28;20505;-72
2022/09/04 09:14:30;;;;;;;7.00;3.47;;;25.20;65.00;;;;;;5048320;28;20487;-70
2022/09/04 09:17:11;;;;;;;7.27;3.00;;;25.20;64.60;;;;;;5001418;28;20535;-71
2022/09/04 09:20:00;;;;;;;2.87;2.67;;;25.20;64.70;;;;;;5053028;28;20510;-69
2022/09/04 09:23:08;;;;;;;2.90;2.67;;;25.20;64.70;;;;;;5046253;28;20516;-70
2022/09/04 09:26:17;;;;;;;3.90;3.00;;;25.20;64.60;;;;;;5049884;28;20459;-69
2022/09/04 09:29:32;;;;;;;2.63;2.30;;;25.20;64.40;;;;;;5047672;28;20505;-72
2022/09/04 09:32:55;;;;;;;3.13;2.93;;;25.30;64.60;;;;;;5048955;28;20543;-69
2022/09/04 09:36:13;;;;;;;3.50;2.40;;;25.30;64.70;;;;;;5043976;28;21917;-73
2022/09/04 09:39:28;;;;;;;2.83;2.60;;;25.30;64.50;;;;;;5052919;28;20493;-70
2022/09/04 09:42:23;;;;;;;2.93;2.63;;;25.30;64.80;;;;;;4965812;28;20518;-73
2022/09/04 09:45:21;;;;;;;3.00;2.70;;;25.30;64.60;;;;;;4967576;28;21067;-69
2022/09/04 09:48:23;;;;;;;2.97;2.70;;;25.30;64.50;;;;;;5042343;28;20493;-71
2022/09/04 09:51:27;;;;;;;2.43;2.23;;;25.30;64.40;;;;;;5050292;28;20500;-70
2022/09/04 09:54:28;;;;;;;2.70;2.50;;;25.30;64.50;;;;;;5050490;28;20524;-70
2022/09/04 09:57:29;;;;;;;3.13;2.57;;;25.30;64.50;;;;;;5048855;28;20465;-70
2022/09/04 10:00:09;;;;;;;2.40;2.20;;;25.30;64.40;;;;;;5053540;28;20793;-69
2022/09/04 10:03:12;;;;;;;3.10;2.90;;;25.30;64.40;;;;;;5051205;28;20463;-70
2022/09/04 10:06:13;;;;;;;2.50;2.30;;;25.40;64.30;;;;;;5053104;28;20508;-70
2022/09/04 10:08:56;;;;;;;3.27;2.47;;;25.40;64.20;;;;;;5047063;28;20461;-70
2022/09/04 10:12:03;;;;;;;2.37;2.17;;;25.40;64.20;;;;;;5049855;28;20452;-70
2022/09/04 10:15:04;;;;;;;6.20;2.70;;;25.40;64.20;;;;;;5051198;28;20976;-71
2022/09/04 10:18:20;;;;;;;2.37;2.07;;;25.40;64.40;;;;;;5048515;28;20873;-70
2022/09/04 10:21:20;;;;;;;2.60;2.40;;;25.50;64.20;;;;;;5051130;28;20443;-70
2022/09/04 10:24:11;;;;;;;7.63;2.10;;;25.50;64.10;;;;;;5048906;28;20563;-74
2022/09/04 10:26:59;;;;;;;2.27;2.17;;;25.50;64.10;;;;;;5050463;28;20499;-71
2022/09/04 10:29:48;;;;;;;4.83;2.20;;;25.50;64.50;;;;;;5049756;28;20454;-72
2022/09/04 10:32:33;;;;;;;2.90;2.70;;;25.60;64.20;;;;;;5051342;28;20454;-70
2022/09/04 10:35:16;;;;;;;2.57;2.37;;;25.60;64.30;;;;;;5050780;28;20880;-73
2022/09/04 10:37:58;;;;;;;2.80;2.20;;;25.70;63.80;;;;;;5050343;28;20514;-73
2022/09/04 10:40:37;;;;;;;2.80;2.00;;;25.70;63.70;;;;;;5042467;28;20459;-70
2022/09/04 10:43:29;;;;;;;2.57;2.30;;;25.80;63.70;;;;;;5050171;28;20452;-76
2022/09/04 10:46:10;;;;;;;2.60;2.40;;;25.80;63.70;;;;;;5048945;28;20456;-71
2022/09/04 10:49:15;;;;;;;3.60;2.53;;;25.80;63.60;;;;;;5050469;28;20461;-70
2022/09/04 10:52:16;;;;;;;2.40;2.30;;;25.90;63.60;;;;;;5048775;28;20467;-71
2022/09/04 10:55:19;;;;;;;2.87;2.60;;;25.90;63.40;;;;;;5049684;28;20468;-71
2022/09/04 10:58:09;;;;;;;3.40;2.30;;;26.00;63.20;;;;;;5051106;28;20472;-74
2022/09/04 11:00:50;;;;;;;2.70;2.50;;;26.10;63.20;;;;;;5043741;28;21135;-71
2022/09/04 11:03:51;;;;;;;3.30;2.97;;;26.20;63.00;;;;;;5040779;28;20457;-72
2022/09/04 11:06:56;;;;;;;4.33;3.17;;;26.30;62.80;;;;;;5004787;28;20496;-72
2022/09/04 11:09:45;;;;;;;3.47;3.10;;;26.30;62.80;;;;;;5030000;28;20494;-72
2022/09/04 11:13:11;;;;;;;7.83;4.33;;;26.30;63.00;;;;;;5048143;28;20457;-72
2022/09/04 11:16:01;;;;;;;5.03;3.20;;;26.30;63.10;;;;;;4980218;28;20854;-70
2022/09/04 11:19:09;;;;;;;4.57;3.00;;;26.30;63.40;;;;;;5049451;28;20470;-72
2022/09/04 11:22:19;;;;;;;7.27;3.53;;;26.30;63.50;;;;;;5042334;28;21338;-71
2022/09/04 11:25:20;;;;;;;4.27;3.87;;;26.30;63.50;;;;;;5033044;28;20454;-71
2022/09/04 11:28:20;;;;;;;6.10;3.13;;;26.30;63.60;;;;;;5045546;28;20464;-71
2022/09/04 11:31:09;;;;;;;11.83;3.27;;;26.50;63.20;;;;;;5046649;28;20513;-72
2022/09/04 11:34:32;;;;;;;5.73;3.70;;;26.90;62.70;;;;;;5048781;28;21313;-72
2022/09/04 11:37:34;;;;;;;6.23;3.50;;;27.30;61.70;;;;;;5041606;28;20475;-71
2022/09/04 11:40:32;;;;;;;4.80;3.50;;;27.80;60.60;;;;;;5014719;28;21034;-71
2022/09/04 11:43:29;;;;;;;4.33;3.70;;;28.00;59.80;;;;;;5039168;28;20498;-74
2022/09/04 11:46:25;;;;;;;6.40;3.27;;;28.10;59.50;;;;;;5048894;28;20507;-71
2022/09/04 11:49:19;;;;;;;3.70;3.40;;;27.90;59.70;;;;;;5047774;28;21256;-73
2022/09/04 11:52:22;;;;;;;4.53;3.10;;;27.70;60.00;;;;;;5049810;28;20535;-70
2022/09/04 11:55:27;;;;;;;6.07;2.80;;;27.50;60.40;;;;;;5035876;28;20515;-71
2022/09/04 11:58:19;;;;;;;3.90;2.47;;;27.30;60.70;;;;;;5047641;28;20504;-70
2022/09/04 12:00:58;;;;;;;5.60;3.20;;;27.20;61.00;;;;;;5047986;28;20546;-72
2022/09/04 12:03:56;;;;;;;2.63;2.40;;;27.20;61.10;;;;;;5049200;28;20469;-70
2022/09/04 12:06:53;;;;;;;3.30;2.77;;;27.30;61.20;;;;;;5020507;28;20499;-71
2022/09/04 12:09:43;;;;;;;4.40;3.00;;;27.50;60.60;;;;;;5048014;28;20499;-71
2022/09/04 12:12:56;;;;;;;5.97;3.63;;;27.80;60.10;;;;;;5047015;28;20483;-70
2022/09/04 12:15:43;;;;;;;5.10;4.57;;;27.90;60.00;;;;;;5010453;28;20605;-70
2022/09/04 12:19:00;;;;;;;3.93;3.20;;;28.00;59.80;;;;;;5043152;28;20606;-69
2022/09/04 12:22:07;;;;;;;3.67;3.30;;;28.10;59.40;;;;;;5008515;28;20508;-70
2022/09/04 12:24:54;;;;;;;6.90;4.10;;;28.20;59.20;;;;;;4989826;28;20563;-71
2022/09/04 12:28:00;;;;;;;5.80;3.20;;;28.30;58.90;;;;;;5049594;28;20989;-71
2022/09/04 12:30:32;;;;;;;5.00;3.50;;;28.50;58.60;;;;;;5045608;28;20468;-72
2022/09/04 12:33:28;;;;;;;5.37;3.47;;;28.50;58.40;;;;;;5048126;28;20855;-71
2022/09/04 12:36:35;;;;;;;8.53;4.20;;;28.30;58.60;;;;;;5045901;28;20567;-71
2022/09/04 12:39:25;;;;;;;5.90;3.50;;;28.30;58.80;;;;;;5043228;28;20557;-71
2022/09/04 12:42:01;;;;;;;6.97;3.80;;;28.40;58.60;;;;;;5050792;28;20825;-70
2022/09/04 12:44:39;;;;;;;6.40;3.40;;;28.40;58.50;;;;;;5051557;28;20474;-71
2022/09/04 12:47:31;;;;;;;4.93;3.47;;;28.20;58.80;;;;;;5044585;28;21412;-70
2022/09/04 12:50:14;;;;;;;5.73;3.40;;;28.10;59.00;;;;;;5045246;28;20457;-74
2022/09/04 12:52:58;;;;;;;5.07;3.50;;;28.10;59.10;;;;;;5053064;28;20456;-71
2022/09/04 12:55:38;;;;;;;6.80;3.70;;;28.10;59.20;;;;;;5053140;28;21066;-71
2022/09/04 12:58:20;;;;;;;5.13;3.47;;;28.30;58.80;;;;;;5054801;28;20536;-71
2022/09/04 13:00:55;;;;;;;5.90;5.30;;;28.60;58.30;;;;;;5045241;28;20455;-74
2022/09/04 13:03:36;;;;;;;5.13;4.57;;;28.70;58.00;;;;;;5052504;28;21216;-71
2022/09/04 13:06:26;;;;;;;7.83;4.13;;;28.80;57.80;;;;;;5048225;28;20493;-73
2022/09/04 13:09:08;;;;;;;5.37;4.10;;;28.90;57.60;;;;;;5048892;28;20452;-73
2022/09/04 13:11:51;;;;;;;4.37;3.83;;;28.90;57.70;;;;;;5052413;28;20913;-72
2022/09/04 13:14:56;;;;;;;4.93;3.27;;;28.90;57.70;;;;;;5050187;28;20467;-74
2022/09/04 13:17:30;;;;;;;4.20;3.60;;;28.90;57.70;;;;;;5048032;28;21002;-72
2022/09/04 13:20:08;;;;;;;5.43;3.87;;;28.90;57.60;;;;;;5052600;28;20458;-74
2022/09/04 13:23:03;;;;;;;3.63;3.20;;;28.90;57.60;;;;;;5052533;28;20444;-71
2022/09/04 13:25:43;;;;;;;5.17;3.60;;;28.80;57.70;;;;;;5052648;28;20458;-72
2022/09/04 13:28:23;;;;;;;8.33;4.00;;;28.70;57.80;;;;;;5049222;28;20860;-72
2022/09/04 13:30:59;;;;;;;4.40;3.90;;;28.70;57.90;;;;;;5051813;28;20454;-73
2022/09/04 13:33:43;;;;;;;6.70;3.43;;;28.80;57.80;;;;;;5050190;28;20945;-74
2022/09/04 13:36:28;;;;;;;4.00;3.57;;;28.80;57.80;;;;;;5048716;28;20468;-73
2022/09/04 13:39:26;;;;;;;3.63;3.33;;;28.90;57.70;;;;;;5048537;28;20487;-72
2022/09/04 13:42:14;;;;;;;5.87;3.80;;;28.90;57.70;;;;;;5037677;28;20478;-71
2022/09/04 13:44:58;;;;;;;4.03;3.63;;;28.90;57.60;;;;;;5048185;28;20950;-71
2022/09/04 13:47:36;;;;;;;5.23;3.77;;;28.90;57.60;;;;;;5047719;28;20468;-72
2022/09/04 13:50:10;;;;;;;4.83;4.03;;;28.80;57.80;;;;;;5047828;28;20459;-72
2022/09/04 13:52:44;;;;;;;5.50;3.30;;;28.80;57.90;;;;;;5050855;28;20499;-71
2022/09/04 13:55:17;;;;;;;4.80;3.20;;;28.70;57.90;;;;;;5051842;28;20472;-72
2022/09/04 13:57:56;;;;;;;4.37;3.30;;;28.70;58.00;;;;;;5049901;28;20927;-71
2022/09/04 14:00:29;;;;;;;9.60;3.80;;;28.70;58.00;;;;;;5048867;28;20456;-72
2022/09/04 14:03:02;;;;;;;4.27;3.47;;;28.70;58.00;;;;;;5047172;28;20466;-73
2022/09/04 14:05:36;;;;;;;5.37;3.67;;;28.70;58.10;;;;;;5049409;28;20460;-71
2022/09/04 14:08:09;;;;;;;4.10;3.33;;;28.70;58.10;;;;;;5047190;28;20860;-72
2022/09/04 14:11:20;;;;;;;4.03;3.63;;;28.70;58.10;;;;;;5049421;28;21058;-70
2022/09/04 14:14:15;;;;;;;3.73;2.67;;;28.60;58.10;;;;;;5028047;28;20547;-72
2022/09/04 14:16:45;;;;;;;3.43;3.13;;;28.50;58.30;;;;;;5050702;28;20496;-72
2022/09/04 14:19:30;;;;;;;3.70;3.40;;;28.50;58.40;;;;;;5048959;28;20553;-72
2022/09/04 14:22:23;;;;;;;5.07;3.50;;;28.40;58.50;;;;;;5050183;28;20509;-74
2022/09/04 14:25:05;;;;;;;4.13;3.37;;;28.30;58.50;;;;;;5052048;28;20499;-72
2022/09/04 14:27:48;;;;;;;5.70;2.93;;;28.10;58.80;;;;;;5051424;28;20569;-73
2022/09/04 14:30:21;;;;;;;3.13;2.83;;;28.00;59.30;;;;;;5048622;28;20874;-73